Impacts METAR Board
IDs:

KDTW - Detroit Metro/Wayne, MI, US

Updated at: 0900 UTC 19 Jul 2018
Potential Impact None Slight Moderate High
Time 18/21Z 18/22Z 18/23Z 19/00Z 19/01Z 19/02Z 19/03Z 19/04Z 19/05Z 19/06Z 19/07Z 19/08Z 19/09Z
Temp83 81 79 77 74 73 71 70 70 68 66 65 64
Dewpt52 56 56 56 55 56 56 56 56 56 56 55 54
Altim30.05 30.04 30.04 30.04 30.04 30.06 30.07 30.06 30.07 30.07 30.08 30.08 30.08
VIS10 10 10 10 10 10 10 10 10 10 10 10 10
CIG-- -- -- -- -- -- -- -- -- -- -- -- --
CoverSCTSCTFEWFEWSCTFEWFEWFEWFEWFEWFEWFEWFEW
FltCatVFRVFRVFRVFRVFRVFRVFRVFRVFRVFRVFRVFRVFR
WX--------------------------
WDir01501601401500120130701001000
WSpd5 7 9 5 4 3 3 3 4 3 3 0 0
WGst-- -- -- -- -- -- -- -- -- -- -- -- --
Raw hourly METARs
KDTW 182053Z VRB05KT 10SM SCT060 28/11 A3005 RMK AO2 SLP174 T02830111 58015
KDTW 182153Z 15007KT 10SM SCT060 27/13 A3004 RMK AO2 SLP170 T02720133
KDTW 182253Z 16009KT 10SM FEW060 26/13 A3004 RMK AO2 SLP170 T02610133
KDTW 182353Z 14005KT 10SM FEW060 25/13 A3004 RMK AO2 SLP169 T02500133 10283 20250 56004
KDTW 190053Z 15004KT 10SM SCT065 23/13 A3004 RMK AO2 SLP170 T02330128
KDTW 190153Z VRB03KT 10SM FEW065 FEW250 23/13 A3006 RMK AO2 SLP174 T02280133
KDTW 190253Z 12003KT 10SM FEW065 FEW250 22/13 A3007 RMK AO2 SLP178 T02170133 53008
KDTW 190353Z 13003KT 10SM FEW065 FEW250 21/13 A3006 RMK AO2 SLP177 T02110133
KDTW 190453Z 07004KT 10SM FEW065 FEW250 21/13 A3007 RMK AO2 SLP178 T02110133 402830161
KDTW 190553Z 10003KT 10SM FEW250 20/13 A3007 RMK AO2 SLP180 T02000133 10250 20200 53002
KDTW 190653Z 01003KT 10SM FEW250 19/13 A3008 RMK AO2 SLP181 T01890133
KDTW 190753Z 00000KT 10SM FEW250 18/13 A3008 RMK AO2 SLP182 T01830128
KDTW 190853Z 00000KT 10SM FEW250 18/12 A3008 RMK AO2 SLP182 T01780122 51002



Page loaded:  09:47 UTC  |   02:47 AM Pacific  |   03:47 AM Mountain  |   04:47 AM Central  |   05:47 AM Eastern

 

ADVISORIES

FORECASTS

FORECASTS

OBSERVATIONS

USER TOOLS

ABOUT US